sensor_id;sensor_type;location;lat;lon;timestamp;pressure;altitude;pressure_sealevel;temperature;humidity
56600;BME280;51832;48.152;11.530;2023-07-20T00:01:15;95271.50;;;25.09;48.74
56600;BME280;51832;48.152;11.530;2023-07-20T00:06:16;95284.97;;;25.18;48.50
56600;BME280;51832;48.152;11.530;2023-07-20T00:11:16;95291.44;;;25.34;48.02
56600;BME280;51832;48.152;11.530;2023-07-20T00:16:17;95277.38;;;25.20;48.52
56600;BME280;51832;48.152;11.530;2023-07-20T00:21:17;95280.22;;;25.06;48.96
56600;BME280;51832;48.152;11.530;2023-07-20T00:26:17;95279.44;;;25.05;48.79
56600;BME280;51832;48.152;11.530;2023-07-20T00:31:18;95282.22;;;24.74;49.31
56600;BME280;51832;48.152;11.530;2023-07-20T00:36:18;95288.41;;;24.92;49.28
56600;BME280;51832;48.152;11.530;2023-07-20T00:41:19;95302.38;;;24.94;49.15
56600;BME280;51832;48.152;11.530;2023-07-20T00:46:23;95295.56;;;25.31;48.60
56600;BME280;51832;48.152;11.530;2023-07-20T00:51:25;95306.03;;;25.15;48.86
56600;BME280;51832;48.152;11.530;2023-07-20T00:56:26;95303.66;;;25.23;49.18
56600;BME280;51832;48.152;11.530;2023-07-20T01:01:27;95297.94;;;25.33;49.14
56600;BME280;51832;48.152;11.530;2023-07-20T01:12:32;95296.53;;;25.35;49.11
56600;BME280;51832;48.152;11.530;2023-07-20T01:17:23;95285.44;;;25.37;49.18
56600;BME280;51832;48.152;11.530;2023-07-20T01:32:59;95291.16;;;25.27;49.77
56600;BME280;51832;48.152;11.530;2023-07-20T01:38:01;95297.78;;;25.29;49.56
56600;BME280;51832;48.152;11.530;2023-07-20T01:43:02;95294.78;;;25.22;50.06
56600;BME280;51832;48.152;11.530;2023-07-20T01:48:03;95293.38;;;25.07;50.10
56600;BME280;51832;48.152;11.530;2023-07-20T01:53:04;95296.06;;;25.07;50.69
56600;BME280;51832;48.152;11.530;2023-07-20T01:58:04;95303.59;;;24.88;51.13
56600;BME280;51832;48.152;11.530;2023-07-20T02:03:06;95293.63;;;24.80;51.11
56600;BME280;51832;48.152;11.530;2023-07-20T02:08:06;95297.13;;;24.72;51.35
56600;BME280;51832;48.152;11.530;2023-07-20T02:13:07;95309.06;;;24.40;51.74
56600;BME280;51832;48.152;11.530;2023-07-20T02:18:07;95292.13;;;24.31;52.17
56600;BME280;51832;48.152;11.530;2023-07-20T02:23:08;95298.31;;;24.40;51.73
56600;BME280;51832;48.152;11.530;2023-07-20T02:28:08;95309.81;;;24.23;52.38
56600;BME280;51832;48.152;11.530;2023-07-20T02:33:09;95302.47;;;24.15;51.56
56600;BME280;51832;48.152;11.530;2023-07-20T02:38:09;95300.34;;;24.26;51.05
56600;BME280;51832;48.152;11.530;2023-07-20T02:43:10;95294.16;;;23.94;51.24
56600;BME280;51832;48.152;11.530;2023-07-20T02:48:10;95307.56;;;24.17;50.69
56600;BME280;51832;48.152;11.530;2023-07-20T02:53:11;95320.41;;;23.89;51.00
56600;BME280;51832;48.152;11.530;2023-07-20T02:58:11;95331.59;;;23.60;51.59
56600;BME280;51832;48.152;11.530;2023-07-20T03:03:11;95331.16;;;23.89;51.43
56600;BME280;51832;48.152;11.530;2023-07-20T03:08:12;95315.06;;;24.06;51.77
56600;BME280;51832;48.152;11.530;2023-07-20T03:13:13;95323.69;;;23.86;52.72
56600;BME280;51832;48.152;11.530;2023-07-20T03:18:14;95331.38;;;23.79;53.77
56600;BME280;51832;48.152;11.530;2023-07-20T03:23:14;95356.56;;;23.24;55.05
56600;BME280;51832;48.152;11.530;2023-07-20T03:28:16;95360.34;;;23.01;56.61
56600;BME280;51832;48.152;11.530;2023-07-20T03:33:17;95355.19;;;22.91;62.49
56600;BME280;51832;48.152;11.530;2023-07-20T03:38:17;95369.47;;;23.00;63.33
56600;BME280;51832;48.152;11.530;2023-07-20T03:43:18;95366.75;;;22.78;63.40
56600;BME280;51832;48.152;11.530;2023-07-20T03:48:21;95362.25;;;22.87;63.06
56600;BME280;51832;48.152;11.530;2023-07-20T03:53:22;95366.31;;;22.84;63.58
56600;BME280;51832;48.152;11.530;2023-07-20T03:58:22;95370.00;;;22.75;63.88
56600;BME280;51832;48.152;11.530;2023-07-20T04:03:23;95365.94;;;22.63;64.31
56600;BME280;51832;48.152;11.530;2023-07-20T04:08:26;95380.63;;;22.93;63.96
56600;BME280;51832;48.152;11.530;2023-07-20T04:13:26;95371.38;;;22.86;63.04
56600;BME280;51832;48.152;11.530;2023-07-20T04:18:28;95370.78;;;22.89;64.39
56600;BME280;51832;48.152;11.530;2023-07-20T04:23:28;95370.53;;;23.13;64.20
56600;BME280;51832;48.152;11.530;2023-07-20T04:28:29;95386.41;;;22.87;64.11
56600;BME280;51832;48.152;11.530;2023-07-20T04:33:31;95375.78;;;22.68;64.87
56600;BME280;51832;48.152;11.530;2023-07-20T04:38:31;95380.16;;;22.37;65.57
56600;BME280;51832;48.152;11.530;2023-07-20T04:43:32;95384.63;;;22.55;65.03
56600;BME280;51832;48.152;11.530;2023-07-20T04:48:32;95372.69;;;22.47;65.43
56600;BME280;51832;48.152;11.530;2023-07-20T04:53:32;95382.91;;;22.45;65.07
56600;BME280;51832;48.152;11.530;2023-07-20T04:58:33;95398.19;;;22.17;65.63
56600;BME280;51832;48.152;11.530;2023-07-20T05:03:33;95393.63;;;22.18;66.39
56600;BME280;51832;48.152;11.530;2023-07-20T05:08:34;95391.88;;;21.94;66.44
56600;BME280;51832;48.152;11.530;2023-07-20T05:13:34;95393.31;;;22.06;66.09
56600;BME280;51832;48.152;11.530;2023-07-20T05:18:35;95400.28;;;21.88;63.83
56600;BME280;51832;48.152;11.530;2023-07-20T05:23:35;95396.84;;;22.01;61.97
56600;BME280;51832;48.152;11.530;2023-07-20T05:28:36;95402.59;;;21.94;61.75
56600;BME280;51832;48.152;11.530;2023-07-20T05:33:36;95394.75;;;21.98;59.97
56600;BME280;51832;48.152;11.530;2023-07-20T05:38:36;95404.91;;;22.01;57.41
56600;BME280;51832;48.152;11.530;2023-07-20T05:43:37;95406.56;;;21.97;55.91
56600;BME280;51832;48.152;11.530;2023-07-20T05:48:37;95404.34;;;21.85;54.45
56600;BME280;51832;48.152;11.530;2023-07-20T05:53:38;95411.59;;;21.85;52.72
56600;BME280;51832;48.152;11.530;2023-07-20T05:58:38;95425.75;;;21.53;53.07
56600;BME280;51832;48.152;11.530;2023-07-20T06:03:39;95409.59;;;21.90;52.50
56600;BME280;51832;48.152;11.530;2023-07-20T06:08:39;95410.75;;;22.03;52.32
56600;BME280;51832;48.152;11.530;2023-07-20T06:13:39;95415.56;;;22.20;52.10
56600;BME280;51832;48.152;11.530;2023-07-20T06:18:40;95419.75;;;22.26;51.76
56600;BME280;51832;48.152;11.530;2023-07-20T06:23:40;95403.84;;;22.29;51.33
56600;BME280;51832;48.152;11.530;2023-07-20T06:28:41;95415.41;;;21.97;52.33
56600;BME280;51832;48.152;11.530;2023-07-20T06:33:41;95418.94;;;21.60;53.27
56600;BME280;51832;48.152;11.530;2023-07-20T06:38:42;95413.00;;;21.96;52.72
56600;BME280;51832;48.152;11.530;2023-07-20T06:43:42;95418.06;;;21.97;52.28
56600;BME280;51832;48.152;11.530;2023-07-20T06:48:42;95403.66;;;22.12;52.00
56600;BME280;51832;48.152;11.530;2023-07-20T06:53:43;95410.22;;;22.47;51.81
56600;BME280;51832;48.152;11.530;2023-07-20T06:58:44;95417.72;;;22.04;52.15
56600;BME280;51832;48.152;11.530;2023-07-20T07:03:44;95416.09;;;22.36;51.16
56600;BME280;51832;48.152;11.530;2023-07-20T07:08:45;95416.94;;;22.17;52.06
56600;BME280;51832;48.152;11.530;2023-07-20T07:13:45;95419.75;;;22.26;51.17
56600;BME280;51832;48.152;11.530;2023-07-20T07:18:47;95413.72;;;22.61;50.16
56600;BME280;51832;48.152;11.530;2023-07-20T07:23:48;95415.38;;;22.44;49.38
56600;BME280;51832;48.152;11.530;2023-07-20T07:28:49;95411.56;;;22.77;48.29
56600;BME280;51832;48.152;11.530;2023-07-20T07:33:50;95414.97;;;23.19;48.58
56600;BME280;51832;48.152;11.530;2023-07-20T07:38:50;95423.47;;;22.85;47.71
56600;BME280;51832;48.152;11.530;2023-07-20T07:43:50;95413.72;;;22.61;47.43
56600;BME280;51832;48.152;11.530;2023-07-20T07:48:51;95418.00;;;22.76;47.14
56600;BME280;51832;48.152;11.530;2023-07-20T07:53:51;95420.06;;;23.07;45.59
56600;BME280;51832;48.152;11.530;2023-07-20T07:58:52;95426.56;;;22.78;46.06
56600;BME280;51832;48.152;11.530;2023-07-20T08:03:52;95413.59;;;23.08;45.98
56600;BME280;51832;48.152;11.530;2023-07-20T08:08:53;95424.94;;;22.91;45.54
56600;BME280;51832;48.152;11.530;2023-07-20T08:13:53;95423.03;;;23.05;46.03
56600;BME280;51832;48.152;11.530;2023-07-20T08:18:53;95415.09;;;23.50;45.79
56600;BME280;51832;48.152;11.530;2023-07-20T08:23:54;95419.31;;;23.64;44.33
56600;BME280;51832;48.152;11.530;2023-07-20T08:28:54;95423.53;;;23.43;43.73
56600;BME280;51832;48.152;11.530;2023-07-20T08:33:55;95433.59;;;23.37;43.69
56600;BME280;51832;48.152;11.530;2023-07-20T08:38:57;95430.91;;;23.51;43.64
56600;BME280;51832;48.152;11.530;2023-07-20T08:43:58;95422.19;;;23.68;42.88
56600;BME280;51832;48.152;11.530;2023-07-20T08:48:59;95432.88;;;23.59;43.70
56600;BME280;51832;48.152;11.530;2023-07-20T08:53:59;95434.56;;;23.55;43.52
56600;BME280;51832;48.152;11.530;2023-07-20T08:59:00;95447.13;;;23.46;44.17
56600;BME280;51832;48.152;11.530;2023-07-20T09:04:01;95420.25;;;23.10;45.02
56600;BME280;51832;48.152;11.530;2023-07-20T09:09:02;95427.28;;;23.20;44.13
56600;BME280;51832;48.152;11.530;2023-07-20T09:14:06;95420.75;;;23.62;42.73
56600;BME280;51832;48.152;11.530;2023-07-20T09:19:07;95404.94;;;24.14;42.38
56600;BME280;51832;48.152;11.530;2023-07-20T09:24:09;95403.78;;;24.59;41.83
56600;BME280;51832;48.152;11.530;2023-07-20T09:29:09;95398.94;;;24.48;41.96
56600;BME280;51832;48.152;11.530;2023-07-20T09:34:10;95397.38;;;24.16;39.89
56600;BME280;51832;48.152;11.530;2023-07-20T09:39:11;95406.22;;;24.16;40.86
56600;BME280;51832;48.152;11.530;2023-07-20T09:44:14;95412.19;;;24.04;41.22
56600;BME280;51832;48.152;11.530;2023-07-20T09:49:14;95395.22;;;24.66;40.82
56600;BME280;51832;48.152;11.530;2023-07-20T09:54:15;95392.25;;;24.28;41.30
56600;BME280;51832;48.152;11.530;2023-07-20T09:59:17;95393.25;;;24.49;41.40
56600;BME280;51832;48.152;11.530;2023-07-20T10:04:18;95396.69;;;24.32;42.03
56600;BME280;51832;48.152;11.530;2023-07-20T10:09:22;95397.13;;;24.74;41.79
56600;BME280;51832;48.152;11.530;2023-07-20T10:14:24;95393.31;;;24.58;41.84
56600;BME280;51832;48.152;11.530;2023-07-20T10:19:49;95395.91;;;24.32;42.31
56600;BME280;51832;48.152;11.530;2023-07-20T10:24:51;95392.75;;;24.38;42.36
56600;BME280;51832;48.152;11.530;2023-07-20T10:29:54;95393.66;;;24.34;42.84
56600;BME280;51832;48.152;11.530;2023-07-20T10:34:56;95386.38;;;24.74;41.81
56600;BME280;51832;48.152;11.530;2023-07-20T10:39:57;95375.34;;;24.84;41.81
56600;BME280;51832;48.152;11.530;2023-07-20T10:44:57;95373.19;;;25.46;41.12
56600;BME280;51832;48.152;11.530;2023-07-20T10:49:59;95379.94;;;24.92;41.82
56600;BME280;51832;48.152;11.530;2023-07-20T10:55:19;95366.72;;;25.13;42.40
56600;BME280;51832;48.152;11.530;2023-07-20T11:00:20;95375.75;;;25.69;40.21
56600;BME280;51832;48.152;11.530;2023-07-20T11:10:34;95369.25;;;25.61;41.19
56600;BME280;51832;48.152;11.530;2023-07-20T11:16:04;95355.16;;;25.56;40.22
56600;BME280;51832;48.152;11.530;2023-07-20T11:21:07;95360.38;;;25.69;39.70
56600;BME280;51832;48.152;11.530;2023-07-20T11:26:09;95347.13;;;26.02;39.15
56600;BME280;51832;48.152;11.530;2023-07-20T11:31:13;95341.69;;;26.28;38.70
56600;BME280;51832;48.152;11.530;2023-07-20T11:36:16;95348.19;;;26.18;38.82
56600;BME280;51832;48.152;11.530;2023-07-20T11:41:16;95350.44;;;26.16;38.92
56600;BME280;51832;48.152;11.530;2023-07-20T11:46:17;95346.31;;;26.10;39.10
56600;BME280;51832;48.152;11.530;2023-07-20T11:51:17;95337.97;;;26.41;38.66
56600;BME280;51832;48.152;11.530;2023-07-20T11:56:18;95328.69;;;27.10;37.64
56600;BME280;51832;48.152;11.530;2023-07-20T12:01:18;95334.66;;;26.65;38.18
56600;BME280;51832;48.152;11.530;2023-07-20T12:06:23;95325.94;;;26.68;37.80
56600;BME280;51832;48.152;11.530;2023-07-20T12:11:35;95326.47;;;26.24;39.04
56600;BME280;51832;48.152;11.530;2023-07-20T12:16:36;95311.72;;;26.80;37.93
56600;BME280;51832;48.152;11.530;2023-07-20T12:21:40;95307.63;;;26.74;38.30
56600;BME280;51832;48.152;11.530;2023-07-20T12:26:41;95305.63;;;26.92;38.24
56600;BME280;51832;48.152;11.530;2023-07-20T12:31:41;95291.81;;;27.68;36.53
56600;BME280;51832;48.152;11.530;2023-07-20T12:36:42;95289.53;;;27.37;36.36
56600;BME280;51832;48.152;11.530;2023-07-20T12:41:42;95281.94;;;27.84;36.10
56600;BME280;51832;48.152;11.530;2023-07-20T12:46:42;95271.09;;;28.41;35.44
56600;BME280;51832;48.152;11.530;2023-07-20T12:51:43;95285.03;;;28.43;34.90
56600;BME280;51832;48.152;11.530;2023-07-20T12:56:43;95263.81;;;27.84;36.10
56600;BME280;51832;48.152;11.530;2023-07-20T13:01:44;95281.69;;;27.44;35.75
56600;BME280;51832;48.152;11.530;2023-07-20T13:06:44;95268.16;;;27.32;36.43
56600;BME280;51832;48.152;11.530;2023-07-20T13:11:45;95257.94;;;27.70;36.08
56600;BME280;51832;48.152;11.530;2023-07-20T13:16:46;95262.38;;;27.99;35.50
56600;BME280;51832;48.152;11.530;2023-07-20T13:21:46;95247.91;;;27.71;36.16
56600;BME280;51832;48.152;11.530;2023-07-20T13:26:47;95261.47;;;28.07;35.65
56600;BME280;51832;48.152;11.530;2023-07-20T13:31:47;95242.53;;;28.32;34.80
56600;BME280;51832;48.152;11.530;2023-07-20T13:36:47;95233.13;;;28.78;34.00
56600;BME280;51832;48.152;11.530;2023-07-20T13:41:48;95241.06;;;28.46;33.83
56600;BME280;51832;48.152;11.530;2023-07-20T13:46:49;95222.31;;;28.65;33.35
56600;BME280;51832;48.152;11.530;2023-07-20T13:51:50;95219.00;;;29.24;33.38
56600;BME280;51832;48.152;11.530;2023-07-20T13:56:50;95208.88;;;29.65;32.16
56600;BME280;51832;48.152;11.530;2023-07-20T14:01:51;95210.41;;;29.66;31.50
56600;BME280;51832;48.152;11.530;2023-07-20T14:06:51;95200.50;;;28.86;32.87
56600;BME280;51832;48.152;11.530;2023-07-20T14:11:52;95202.22;;;29.34;31.74
56600;BME280;51832;48.152;11.530;2023-07-20T14:16:52;95200.00;;;30.31;30.88
56600;BME280;51832;48.152;11.530;2023-07-20T14:21:53;95195.00;;;29.39;31.02
56600;BME280;51832;48.152;11.530;2023-07-20T14:26:53;95203.66;;;29.44;30.96
56600;BME280;51832;48.152;11.530;2023-07-20T14:31:54;95183.66;;;30.62;29.47
56600;BME280;51832;48.152;11.530;2023-07-20T14:36:55;95176.81;;;30.68;30.30
56600;BME280;51832;48.152;11.530;2023-07-20T14:41:55;95173.88;;;30.96;29.72
56600;BME280;51832;48.152;11.530;2023-07-20T14:46:56;95179.88;;;30.51;30.46
56600;BME280;51832;48.152;11.530;2023-07-20T14:51:56;95169.72;;;31.64;29.10
56600;BME280;51832;48.152;11.530;2023-07-20T14:56:57;95181.88;;;30.89;29.40
56600;BME280;51832;48.152;11.530;2023-07-20T15:01:57;95172.06;;;31.04;29.71
56600;BME280;51832;48.152;11.530;2023-07-20T15:06:57;95166.22;;;31.86;28.50
56600;BME280;51832;48.152;11.530;2023-07-20T15:11:58;95161.69;;;31.94;28.19
56600;BME280;51832;48.152;11.530;2023-07-20T15:16:58;95172.38;;;30.80;28.97
56600;BME280;51832;48.152;11.530;2023-07-20T15:21:59;95162.69;;;31.40;28.11
56600;BME280;51832;48.152;11.530;2023-07-20T15:26:59;95154.16;;;32.10;27.46
56600;BME280;51832;48.152;11.530;2023-07-20T15:32:00;95159.06;;;32.24;27.80
56600;BME280;51832;48.152;11.530;2023-07-20T15:37:00;95147.94;;;32.09;27.90
56600;BME280;51832;48.152;11.530;2023-07-20T15:42:00;95143.28;;;32.36;27.64
56600;BME280;51832;48.152;11.530;2023-07-20T15:47:01;95134.69;;;32.94;26.94
56600;BME280;51832;48.152;11.530;2023-07-20T15:52:04;95133.56;;;33.73;25.68
56600;BME280;51832;48.152;11.530;2023-07-20T15:57:05;95134.28;;;32.92;26.38
56600;BME280;51832;48.152;11.530;2023-07-20T16:02:06;95129.91;;;33.58;25.62
56600;BME280;51832;48.152;11.530;2023-07-20T16:07:07;95120.75;;;34.28;24.69
56600;BME280;51832;48.152;11.530;2023-07-20T16:12:07;95115.81;;;34.62;24.33
56600;BME280;51832;48.152;11.530;2023-07-20T16:17:08;95113.59;;;34.82;23.51
56600;BME280;51832;48.152;11.530;2023-07-20T16:22:08;95106.56;;;34.88;23.27
56600;BME280;51832;48.152;11.530;2023-07-20T16:27:11;95109.69;;;34.86;23.72
56600;BME280;51832;48.152;11.530;2023-07-20T16:32:12;95103.56;;;35.28;23.02
56600;BME280;51832;48.152;11.530;2023-07-20T16:37:12;95112.09;;;34.99;23.16
56600;BME280;51832;48.152;11.530;2023-07-20T16:42:12;95095.22;;;36.78;21.45
56600;BME280;51832;48.152;11.530;2023-07-20T16:47:14;95100.38;;;37.97;19.58
56600;BME280;51832;48.152;11.530;2023-07-20T16:52:14;95092.25;;;35.30;22.12
56600;BME280;51832;48.152;11.530;2023-07-20T16:57:15;95087.56;;;36.34;20.90
56600;BME280;51832;48.152;11.530;2023-07-20T17:02:15;95098.63;;;39.19;18.06
56600;BME280;51832;48.152;11.530;2023-07-20T17:07:16;95091.03;;;41.06;16.49
56600;BME280;51832;48.152;11.530;2023-07-20T17:12:17;95087.81;;;42.70;15.15
56600;BME280;51832;48.152;11.530;2023-07-20T17:17:17;95103.22;;;42.26;14.82
56600;BME280;51832;48.152;11.530;2023-07-20T17:22:18;95104.25;;;42.32;14.52
56600;BME280;51832;48.152;11.530;2023-07-20T17:27:18;95100.94;;;43.62;14.12
56600;BME280;51832;48.152;11.530;2023-07-20T17:32:18;95099.81;;;43.98;13.50
56600;BME280;51832;48.152;11.530;2023-07-20T17:37:19;95100.16;;;43.62;13.64
56600;BME280;51832;48.152;11.530;2023-07-20T17:42:21;95094.25;;;43.21;13.95
56600;BME280;51832;48.152;11.530;2023-07-20T17:47:21;95092.66;;;41.76;14.92
56600;BME280;51832;48.152;11.530;2023-07-20T17:52:22;95095.00;;;41.05;14.92
56600;BME280;51832;48.152;11.530;2023-07-20T17:57:22;95093.88;;;41.23;14.89
56600;BME280;51832;48.152;11.530;2023-07-20T18:02:23;95084.56;;;40.97;15.43
56600;BME280;51832;48.152;11.530;2023-07-20T18:07:25;95092.13;;;38.38;17.15
56600;BME280;51832;48.152;11.530;2023-07-20T18:12:25;95086.84;;;37.17;18.58
56600;BME280;51832;48.152;11.530;2023-07-20T18:17:26;95083.66;;;35.56;20.28
56600;BME280;51832;48.152;11.530;2023-07-20T18:22:26;95095.69;;;35.06;21.03
56600;BME280;51832;48.152;11.530;2023-07-20T18:27:27;95092.94;;;34.95;23.55
56600;BME280;51832;48.152;11.530;2023-07-20T18:32:27;95083.28;;;35.44;21.67
56600;BME280;51832;48.152;11.530;2023-07-20T18:37:28;95086.75;;;35.23;20.87
56600;BME280;51832;48.152;11.530;2023-07-20T18:42:28;95092.78;;;34.56;21.92
56600;BME280;51832;48.152;11.530;2023-07-20T18:47:29;95087.06;;;34.13;22.07
56600;BME280;51832;48.152;11.530;2023-07-20T18:52:31;95089.72;;;33.51;22.78
56600;BME280;51832;48.152;11.530;2023-07-20T18:57:32;95087.97;;;32.96;23.21
56600;BME280;51832;48.152;11.530;2023-07-20T19:02:32;95094.34;;;32.73;23.59
56600;BME280;51832;48.152;11.530;2023-07-20T19:07:33;95099.97;;;32.28;23.98
56600;BME280;51832;48.152;11.530;2023-07-20T19:12:33;95102.81;;;32.08;24.10
56600;BME280;51832;48.152;11.530;2023-07-20T19:17:34;95107.94;;;31.87;26.78
56600;BME280;51832;48.152;11.530;2023-07-20T19:22:34;95104.31;;;31.79;28.38
56600;BME280;51832;48.152;11.530;2023-07-20T19:27:35;95110.63;;;31.84;26.52
56600;BME280;51832;48.152;11.530;2023-07-20T19:32:35;95117.75;;;31.69;26.89
56600;BME280;51832;48.152;11.530;2023-07-20T19:37:37;95124.72;;;31.66;26.98
56600;BME280;51832;48.152;11.530;2023-07-20T19:42:37;95119.88;;;31.56;26.22
56600;BME280;51832;48.152;11.530;2023-07-20T19:47:38;95124.38;;;31.49;26.71
56600;BME280;51832;48.152;11.530;2023-07-20T19:52:38;95135.88;;;31.38;26.76
56600;BME280;51832;48.152;11.530;2023-07-20T19:57:39;95135.44;;;31.14;26.12
56600;BME280;51832;48.152;11.530;2023-07-20T20:02:41;95137.59;;;31.08;26.83
56600;BME280;51832;48.152;11.530;2023-07-20T20:07:41;95146.16;;;30.52;26.47
56600;BME280;51832;48.152;11.530;2023-07-20T20:12:42;95146.72;;;30.58;27.29
56600;BME280;51832;48.152;11.530;2023-07-20T20:17:43;95141.44;;;30.49;27.39
56600;BME280;51832;48.152;11.530;2023-07-20T20:22:43;95146.56;;;30.35;27.24
56600;BME280;51832;48.152;11.530;2023-07-20T20:27:43;95143.31;;;29.94;28.08
56600;BME280;51832;48.152;11.530;2023-07-20T20:32:44;95142.44;;;29.90;28.24
56600;BME280;51832;48.152;11.530;2023-07-20T20:37:44;95143.59;;;29.89;28.00
56600;BME280;51832;48.152;11.530;2023-07-20T20:42:45;95135.09;;;29.91;28.58
56600;BME280;51832;48.152;11.530;2023-07-20T20:47:46;95128.63;;;29.80;28.91
56600;BME280;51832;48.152;11.530;2023-07-20T20:52:47;95125.94;;;29.64;28.87
56600;BME280;51832;48.152;11.530;2023-07-20T20:57:47;95134.41;;;29.47;29.38
56600;BME280;51832;48.152;11.530;2023-07-20T21:02:49;95121.22;;;29.45;29.63
56600;BME280;51832;48.152;11.530;2023-07-20T21:07:50;95121.44;;;29.24;29.68
56600;BME280;51832;48.152;11.530;2023-07-20T21:12:50;95122.91;;;29.06;30.42
56600;BME280;51832;48.152;11.530;2023-07-20T21:17:51;95103.72;;;28.99;30.56
56600;BME280;51832;48.152;11.530;2023-07-20T21:22:51;95107.75;;;28.89;30.35
56600;BME280;51832;48.152;11.530;2023-07-20T21:27:52;95111.78;;;28.68;30.98
56600;BME280;51832;48.152;11.530;2023-07-20T21:32:54;95116.28;;;28.63;30.76
56600;BME280;51832;48.152;11.530;2023-07-20T21:37:54;95113.91;;;28.62;31.16
56600;BME280;51832;48.152;11.530;2023-07-20T21:42:55;95117.22;;;28.55;31.41
56600;BME280;51832;48.152;11.530;2023-07-20T21:47:55;95117.00;;;28.48;31.88
56600;BME280;51832;48.152;11.530;2023-07-20T21:52:55;95122.00;;;28.34;32.04
56600;BME280;51832;48.152;11.530;2023-07-20T21:57:58;95120.00;;;28.31;31.97
56600;BME280;51832;48.152;11.530;2023-07-20T22:02:59;95112.13;;;28.14;32.77
56600;BME280;51832;48.152;11.530;2023-07-20T22:07:59;95113.94;;;28.10;33.00
56600;BME280;51832;48.152;11.530;2023-07-20T22:12:59;95119.00;;;28.11;32.23
56600;BME280;51832;48.152;11.530;2023-07-20T22:18:00;95113.81;;;28.06;32.22
56600;BME280;51832;48.152;11.530;2023-07-20T22:23:01;95113.28;;;28.01;32.34
56600;BME280;51832;48.152;11.530;2023-07-20T22:28:02;95109.44;;;28.02;32.97
56600;BME280;51832;48.152;11.530;2023-07-20T22:33:02;95102.88;;;28.03;33.10
56600;BME280;51832;48.152;11.530;2023-07-20T22:38:03;95103.50;;;27.84;33.02
56600;BME280;51832;48.152;11.530;2023-07-20T22:43:04;95104.75;;;27.74;33.13
56600;BME280;51832;48.152;11.530;2023-07-20T22:48:04;95098.88;;;27.60;34.01
56600;BME280;51832;48.152;11.530;2023-07-20T22:53:05;95098.94;;;27.51;34.41
56600;BME280;51832;48.152;11.530;2023-07-20T22:58:05;95092.56;;;27.56;34.60
56600;BME280;51832;48.152;11.530;2023-07-20T23:03:05;95109.63;;;27.48;35.27
56600;BME280;51832;48.152;11.530;2023-07-20T23:08:06;95098.94;;;27.39;35.11
56600;BME280;51832;48.152;11.530;2023-07-20T23:13:07;95087.00;;;27.28;35.02
56600;BME280;51832;48.152;11.530;2023-07-20T23:18:07;95091.03;;;27.22;35.36
56600;BME280;51832;48.152;11.530;2023-07-20T23:23:08;95079.88;;;27.11;35.50
56600;BME280;51832;48.152;11.530;2023-07-20T23:28:08;95075.59;;;26.98;35.08
56600;BME280;51832;48.152;11.530;2023-07-20T23:33:08;95057.16;;;27.00;35.00
56600;BME280;51832;48.152;11.530;2023-07-20T23:38:09;95055.56;;;26.99;35.34
56600;BME280;51832;48.152;11.530;2023-07-20T23:43:09;95039.78;;;26.89;35.20
56600;BME280;51832;48.152;11.530;2023-07-20T23:48:10;95032.47;;;26.89;35.47
56600;BME280;51832;48.152;11.530;2023-07-20T23:53:12;95042.81;;;26.87;35.30
56600;BME280;51832;48.152;11.530;2023-07-20T23:58:13;95037.28;;;26.84;35.57
